Time;durP1;ratioP1;P1;durP2;ratioP2;P2;SDS_P1;SDS_P2;PMS_P1;PMS_P2;Temp;Humidity;BMP_temperature;BMP_pressure;BME280_temperature;BME280_humidity;BME280_pressure;Samples;Min_cycle;Max_cycle;Signal;HPM_P1;HPM_P2
2023/06/24 00:01:19;;;;;;;5.22;4.45;;;17.30;99.90;;;;;;5052012;28;20025;-48
2023/06/24 00:03:46;;;;;;;4.57;4.05;;;17.30;99.90;;;;;;5052366;28;20043;-47
2023/06/24 00:06:18;;;;;;;4.47;4.07;;;17.20;99.90;;;;;;5051528;28;20047;-50
2023/06/24 00:08:47;;;;;;;6.25;5.65;;;17.20;99.90;;;;;;5057716;28;20052;-49
2023/06/24 00:11:15;;;;;;;6.68;5.05;;;17.20;99.90;;;;;;5069774;28;20124;-51
2023/06/24 00:13:42;;;;;;;7.65;5.63;;;17.10;99.90;;;;;;5058701;28;20035;-48
2023/06/24 00:16:08;;;;;;;5.70;5.20;;;17.10;99.90;;;;;;5069642;28;20048;-46
2023/06/24 00:18:35;;;;;;;8.25;6.03;;;17.10;99.90;;;;;;5065800;28;20520;-47
2023/06/24 00:21:02;;;;;;;6.15;5.47;;;17.10;99.90;;;;;;5068644;28;20063;-49
2023/06/24 00:23:30;;;;;;;20.45;6.07;;;17.10;99.90;;;;;;5066561;28;20037;-47
2023/06/24 00:25:56;;;;;;;5.93;5.45;;;17.10;99.90;;;;;;5049776;28;20057;-50
2023/06/24 00:28:22;;;;;;;7.13;6.40;;;17.00;99.90;;;;;;5059879;28;20425;-47
2023/06/24 00:30:48;;;;;;;7.68;6.78;;;17.00;99.90;;;;;;5068603;28;20041;-50
2023/06/24 00:33:14;;;;;;;7.35;6.22;;;17.00;99.90;;;;;;5059512;28;20093;-47
2023/06/24 00:35:41;;;;;;;4.22;4.03;;;17.00;99.90;;;;;;5069536;28;20123;-49
2023/06/24 00:38:07;;;;;;;5.40;3.25;;;17.00;99.90;;;;;;5067077;28;20378;-50
2023/06/24 00:40:33;;;;;;;2.78;2.58;;;17.00;99.90;;;;;;5053131;28;20528;-46
2023/06/24 00:43:01;;;;;;;3.78;3.58;;;16.80;99.90;;;;;;5050915;28;20409;-46
2023/06/24 00:45:27;;;;;;;4.93;4.47;;;16.70;99.90;;;;;;5065064;28;20051;-47
2023/06/24 00:47:54;;;;;;;6.28;5.68;;;16.60;99.90;;;;;;5066778;28;20049;-46
2023/06/24 00:50:20;;;;;;;6.82;5.78;;;16.60;99.90;;;;;;5061975;28;20037;-50
2023/06/24 00:52:47;;;;;;;6.85;5.75;;;16.60;99.90;;;;;;5052086;28;20043;-46
2023/06/24 00:55:15;;;;;;;10.23;6.50;;;16.60;99.90;;;;;;5061898;28;20040;-47
2023/06/24 00:57:45;;;;;;;7.18;6.25;;;16.60;99.90;;;;;;5053586;28;20037;-46
2023/06/24 01:00:14;;;;;;;6.07;5.30;;;16.60;99.90;;;;;;5057618;28;20120;-49
2023/06/24 01:02:42;;;;;;;7.50;6.78;;;16.60;99.90;;;;;;5068238;28;20492;-47
2023/06/24 01:05:08;;;;;;;9.18;7.00;;;16.60;99.90;;;;;;5064305;28;20119;-49
2023/06/24 01:07:36;;;;;;;10.55;7.93;;;16.60;99.90;;;;;;5067448;28;20404;-47
2023/06/24 01:10:05;;;;;;;9.85;8.00;;;16.60;99.90;;;;;;5058741;28;20262;-48
2023/06/24 01:12:33;;;;;;;8.68;7.75;;;16.60;99.90;;;;;;5068702;28;20050;-48
2023/06/24 01:14:59;;;;;;;10.82;9.73;;;16.70;99.90;;;;;;5060255;28;20041;-50
2023/06/24 01:17:42;;;;;;;;;;;16.70;99.90;;;;;;5067188;28;20024;-46
2023/06/24 01:20:10;;;;;;;3.50;3.30;;;16.60;99.90;;;;;;5053970;28;19962;-49
2023/06/24 01:23:12;;;;;;;4.05;3.70;;;16.50;99.90;;;;;;5051393;28;20116;-49
2023/06/24 01:25:55;;;;;;;11.55;4.10;;;16.30;99.90;;;;;;5053258;28;20036;-47
2023/06/24 01:28:39;;;;;;;4.75;4.40;;;16.30;99.90;;;;;;5049709;28;20052;-48
2023/06/24 01:31:36;;;;;;;5.00;4.10;;;16.20;99.90;;;;;;5056097;28;20498;-47
2023/06/24 01:34:06;;;;;;;4.85;4.35;;;16.10;99.90;;;;;;5056782;28;20165;-47
2023/06/24 01:36:34;;;;;;;4.32;4.03;;;16.10;99.90;;;;;;5066393;28;20040;-48
2023/06/24 01:39:07;;;;;;;4.35;4.05;;;16.10;99.90;;;;;;5050896;28;20036;-46
2023/06/24 01:41:44;;;;;;;4.55;3.50;;;16.00;99.90;;;;;;5060881;28;20037;-46
2023/06/24 01:44:14;;;;;;;3.47;2.33;;;15.90;99.90;;;;;;5061727;28;20079;-49
2023/06/24 01:46:41;;;;;;;2.58;2.38;;;15.70;99.90;;;;;;5050337;28;20041;-49
2023/06/24 01:49:11;;;;;;;3.17;2.97;;;15.60;99.90;;;;;;5050690;28;20044;-50
2023/06/24 01:51:40;;;;;;;3.95;2.75;;;15.50;99.90;;;;;;5051117;28;20430;-46
2023/06/24 01:54:10;;;;;;;5.07;4.68;;;15.40;99.90;;;;;;5058860;28;20469;-48
2023/06/24 01:56:37;;;;;;;5.95;5.43;;;15.40;99.90;;;;;;5050583;28;20367;-46
2023/06/24 01:59:04;;;;;;;9.35;5.95;;;15.40;99.90;;;;;;5054629;28;20063;-46
2023/06/24 02:01:33;;;;;;;7.60;5.85;;;15.50;99.90;;;;;;5060263;28;20033;-46
2023/06/24 02:04:01;;;;;;;7.10;6.28;;;15.60;99.90;;;;;;5062455;28;20055;-49
2023/06/24 02:06:29;;;;;;;8.52;6.93;;;15.60;99.90;;;;;;5053422;28;20378;-46
2023/06/24 02:08:58;;;;;;;7.93;7.22;;;15.70;99.90;;;;;;5050105;28;20379;-48
2023/06/24 02:11:26;;;;;;;8.73;7.00;;;15.60;99.90;;;;;;5063706;28;20075;-46
2023/06/24 02:13:54;;;;;;;9.15;6.65;;;15.70;99.90;;;;;;5050114;28;20493;-46
2023/06/24 02:16:20;;;;;;;9.88;6.53;;;15.70;99.90;;;;;;5062666;28;20033;-47
2023/06/24 02:18:48;;;;;;;7.43;6.75;;;15.70;99.90;;;;;;5064354;28;20102;-51
2023/06/24 02:21:17;;;;;;;11.25;6.95;;;15.70;99.90;;;;;;5050866;28;20502;-46
2023/06/24 02:23:43;;;;;;;7.13;6.20;;;15.70;99.90;;;;;;5059329;28;20037;-46
2023/06/24 02:26:10;;;;;;;5.72;5.18;;;15.70;99.90;;;;;;5053995;28;20486;-46
2023/06/24 02:28:38;;;;;;;6.85;5.28;;;15.60;99.90;;;;;;5048946;28;20067;-46
2023/06/24 02:31:05;;;;;;;7.68;6.43;;;15.60;99.90;;;;;;5053561;28;20037;-46
2023/06/24 02:33:31;;;;;;;6.63;6.03;;;15.60;99.90;;;;;;5053855;28;20067;-51
2023/06/24 02:35:56;;;;;;;6.38;4.95;;;15.50;99.90;;;;;;5052819;28;20045;-47
2023/06/24 02:38:22;;;;;;;3.75;3.53;;;15.50;99.90;;;;;;5063987;28;20036;-46
2023/06/24 02:40:49;;;;;;;4.85;4.45;;;15.40;99.90;;;;;;5055560;28;20170;-50
2023/06/24 02:43:15;;;;;;;6.95;4.35;;;15.30;99.90;;;;;;5051369;28;20032;-46
2023/06/24 02:45:41;;;;;;;9.32;6.72;;;15.20;99.90;;;;;;5058838;28;20167;-46
2023/06/24 02:48:08;;;;;;;8.00;7.20;;;15.30;99.90;;;;;;5049843;28;20561;-46
2023/06/24 02:50:35;;;;;;;11.55;8.45;;;15.20;99.90;;;;;;5054053;28;20110;-49
2023/06/24 02:53:02;;;;;;;11.25;10.10;;;15.30;99.90;;;;;;5066471;28;20037;-47
2023/06/24 02:55:28;;;;;;;11.50;10.30;;;15.30;99.90;;;;;;5063418;28;20127;-48
2023/06/24 02:57:55;;;;;;;13.43;9.27;;;15.30;99.90;;;;;;5054561;28;20044;-47
2023/06/24 03:00:21;;;;;;;19.25;11.50;;;15.30;99.90;;;;;;5052908;28;20044;-46
2023/06/24 03:02:47;;;;;;;11.75;10.60;;;15.30;99.90;;;;;;5066752;28;20105;-48
2023/06/24 03:05:15;;;;;;;13.85;10.57;;;15.40;99.90;;;;;;5065617;28;20052;-50
2023/06/24 03:07:42;;;;;;;13.88;9.85;;;15.40;99.90;;;;;;5049148;28;20047;-48
2023/06/24 03:10:08;;;;;;;11.50;10.35;;;15.40;99.90;;;;;;5048824;28;20041;-46
2023/06/24 03:12:33;;;;;;;10.68;9.65;;;15.40;99.90;;;;;;5067350;28;20079;-46
2023/06/24 03:15:00;;;;;;;10.82;9.55;;;15.40;99.90;;;;;;5054962;28;20118;-49
2023/06/24 03:17:26;;;;;;;9.07;7.68;;;15.40;99.90;;;;;;5061391;28;20438;-48
2023/06/24 03:19:52;;;;;;;9.68;8.77;;;15.40;99.90;;;;;;5052293;28;20099;-47
2023/06/24 03:22:17;;;;;;;14.73;9.27;;;15.30;99.90;;;;;;5067833;28;20064;-49
2023/06/24 03:24:43;;;;;;;13.27;8.95;;;15.20;99.90;;;;;;5070116;28;20120;-46
2023/06/24 03:27:09;;;;;;;8.73;7.60;;;15.20;99.90;;;;;;5065923;28;20040;-46
2023/06/24 03:29:35;;;;;;;13.82;9.27;;;15.10;99.90;;;;;;5069835;28;20040;-46
2023/06/24 03:32:00;;;;;;;13.38;9.75;;;15.20;99.90;;;;;;5059229;28;20048;-50
2023/06/24 03:34:27;;;;;;;11.43;10.02;;;15.20;99.90;;;;;;5051457;28;20561;-49
2023/06/24 03:36:54;;;;;;;;;;;15.20;99.90;;;;;;5059225;28;20127;-48
2023/06/24 03:39:20;;;;;;;10.95;9.85;;;15.20;99.90;;;;;;5051570;28;20300;-46
2023/06/24 03:41:46;;;;;;;13.82;9.77;;;15.20;99.90;;;;;;5060651;28;20033;-46
2023/06/24 03:44:11;;;;;;;11.25;9.90;;;15.20;99.90;;;;;;5069863;28;20055;-46
2023/06/24 03:46:37;;;;;;;12.02;10.75;;;15.20;99.90;;;;;;5067933;28;20033;-46
2023/06/24 03:49:03;;;;;;;11.68;10.00;;;15.20;99.90;;;;;;5067983;28;20056;-50
2023/06/24 03:51:28;;;;;;;12.20;9.25;;;15.20;99.90;;;;;;5059651;28;20488;-46
2023/06/24 03:53:54;;;;;;;15.25;8.40;;;15.20;99.90;;;;;;5070075;28;20040;-46
2023/06/24 03:56:20;;;;;;;10.63;8.80;;;15.10;99.90;;;;;;5057313;28;20477;-45
2023/06/24 03:58:45;;;;;;;11.18;9.38;;;15.10;99.90;;;;;;5068072;28;20043;-48
2023/06/24 04:01:11;;;;;;;18.73;12.52;;;15.20;99.90;;;;;;5067765;28;20028;-47
2023/06/24 04:03:36;;;;;;;16.70;13.02;;;15.20;99.90;;;;;;5051154;28;20029;-50
2023/06/24 04:06:02;;;;;;;17.83;13.45;;;15.30;99.90;;;;;;5064780;28;20093;-46
2023/06/24 04:08:31;;;;;;;18.05;13.30;;;15.40;99.90;;;;;;5051705;28;20045;-49
2023/06/24 04:11:03;;;;;;;14.02;12.63;;;15.50;99.90;;;;;;5052115;28;20097;-45
2023/06/24 04:13:28;;;;;;;19.27;14.63;;;15.50;99.90;;;;;;5060629;28;20090;-48
2023/06/24 04:15:54;;;;;;;16.48;13.35;;;15.60;99.90;;;;;;5066246;28;20133;-48
2023/06/24 04:18:20;;;;;;;20.90;13.07;;;15.60;99.90;;;;;;5057471;28;20509;-50
2023/06/24 04:20:46;;;;;;;20.67;14.40;;;15.70;99.90;;;;;;5051573;28;20047;-46
2023/06/24 04:23:14;;;;;;;15.05;13.50;;;15.70;99.90;;;;;;5059633;28;20127;-49
2023/06/24 04:25:40;;;;;;;15.45;13.82;;;15.80;99.90;;;;;;5068245;28;20524;-46
2023/06/24 04:28:05;;;;;;;16.25;13.85;;;15.80;99.90;;;;;;5060327;28;20049;-45
2023/06/24 04:30:32;;;;;;;18.73;13.63;;;15.90;99.90;;;;;;5051273;28;20048;-46
2023/06/24 04:32:58;;;;;;;17.17;13.68;;;16.00;99.90;;;;;;5055592;28;20586;-46
2023/06/24 04:35:24;;;;;;;16.80;13.50;;;16.00;99.90;;;;;;5052447;28;20084;-46
2023/06/24 04:37:50;;;;;;;18.27;14.30;;;16.00;99.90;;;;;;5056645;28;20095;-46
2023/06/24 04:40:18;;;;;;;16.88;13.98;;;16.10;99.90;;;;;;5069034;28;20037;-48
2023/06/24 04:42:44;;;;;;;20.60;15.10;;;16.20;99.90;;;;;;5065086;28;20516;-46
2023/06/24 04:45:10;;;;;;;23.17;14.57;;;16.20;99.90;;;;;;5052622;28;20041;-47
2023/06/24 04:47:36;;;;;;;24.50;15.20;;;16.30;99.90;;;;;;5053151;28;20119;-46
2023/06/24 04:50:01;;;;;;;17.05;14.68;;;16.30;99.90;;;;;;5068776;28;20481;-46
2023/06/24 04:52:27;;;;;;;16.08;14.38;;;16.40;99.90;;;;;;5059540;28;20175;-46
2023/06/24 04:54:53;;;;;;;20.23;14.60;;;16.40;99.90;;;;;;5061101;28;20145;-46
2023/06/24 04:57:29;;;;;;;19.77;16.25;;;16.50;99.90;;;;;;5056680;28;20103;-45
2023/06/24 04:59:56;;;;;;;18.77;15.02;;;16.60;99.90;;;;;;5062841;28;20086;-49
2023/06/24 05:02:22;;;;;;;18.27;14.27;;;16.60;99.90;;;;;;5067538;28;20117;-49
2023/06/24 05:04:48;;;;;;;17.83;14.55;;;16.70;99.90;;;;;;5052038;28;20169;-46
2023/06/24 05:07:14;;;;;;;21.10;15.70;;;16.80;99.90;;;;;;5065613;28;20043;-46
2023/06/24 05:09:39;;;;;;;19.08;16.42;;;16.90;99.90;;;;;;5055138;28;20036;-49
2023/06/24 05:12:06;;;;;;;16.80;15.10;;;17.00;99.90;;;;;;5067384;28;20374;-46
2023/06/24 05:14:31;;;;;;;24.63;17.15;;;17.10;99.90;;;;;;5052624;28;20091;-46
2023/06/24 05:16:57;;;;;;;23.77;18.00;;;17.20;99.90;;;;;;5050552;28;20029;-47
2023/06/24 05:19:22;;;;;;;17.63;15.82;;;17.30;99.90;;;;;;5062678;28;20133;-45
2023/06/24 05:21:48;;;;;;;19.65;15.57;;;17.40;99.90;;;;;;5057360;28;20041;-47
2023/06/24 05:24:13;;;;;;;17.60;15.57;;;17.60;99.90;;;;;;5060138;28;20127;-46
2023/06/24 05:26:39;;;;;;;18.55;13.30;;;17.70;99.90;;;;;;5068522;28;20055;-49
2023/06/24 05:29:05;;;;;;;21.33;15.05;;;17.70;99.90;;;;;;5056999;28;20326;-46
2023/06/24 05:31:30;;;;;;;18.55;15.77;;;17.80;99.90;;;;;;5067707;28;20458;-47
2023/06/24 05:33:56;;;;;;;16.52;14.25;;;17.90;99.90;;;;;;5066544;28;20044;-50
2023/06/24 05:36:21;;;;;;;17.25;14.70;;;18.00;99.90;;;;;;5065906;28;20036;-49
2023/06/24 05:38:48;;;;;;;18.00;14.55;;;18.00;99.90;;;;;;5066107;28;20033;-46
2023/06/24 05:41:14;;;;;;;16.30;14.27;;;18.20;99.90;;;;;;5066332;28;20105;-50
2023/06/24 05:43:42;;;;;;;19.85;13.88;;;18.30;99.90;;;;;;5053172;28;20025;-46
2023/06/24 05:46:08;;;;;;;17.20;14.15;;;18.40;99.90;;;;;;5068213;28;20028;-46
2023/06/24 05:48:33;;;;;;;16.92;13.20;;;18.50;99.90;;;;;;5063470;28;20068;-46
2023/06/24 05:50:59;;;;;;;18.40;13.00;;;18.60;99.90;;;;;;5049585;28;20395;-48
2023/06/24 05:53:24;;;;;;;;;;;18.70;99.90;;;;;;5052098;28;20033;-51
2023/06/24 05:55:50;;;;;;;14.25;12.75;;;18.70;99.90;;;;;;5067401;28;20003;-46
2023/06/24 05:58:16;;;;;;;15.85;12.70;;;18.70;99.90;;;;;;5066811;28;20032;-46
2023/06/24 06:00:41;;;;;;;15.32;13.30;;;18.80;99.90;;;;;;5059420;28;20477;-47
2023/06/24 06:03:07;;;;;;;17.80;13.35;;;18.90;99.90;;;;;;5059257;28;20025;-51
2023/06/24 06:05:33;;;;;;;;;;;19.00;99.90;;;;;;5065911;28;20176;-46
2023/06/24 06:07:58;;;;;;;15.45;12.82;;;19.00;99.90;;;;;;5067160;28;20080;-47
2023/06/24 06:10:24;;;;;;;18.13;11.57;;;19.10;99.90;;;;;;5063412;28;20040;-47
2023/06/24 06:12:49;;;;;;;12.02;10.80;;;19.30;99.90;;;;;;5053942;28;20041;-49
2023/06/24 06:15:15;;;;;;;18.65;12.02;;;19.40;99.90;;;;;;5062115;28;20040;-46
2023/06/24 06:17:41;;;;;;;13.63;11.75;;;19.50;99.90;;;;;;5064095;28;20033;-46
2023/06/24 06:20:06;;;;;;;;;;;19.50;99.90;;;;;;5050220;28;20094;-49
2023/06/24 06:22:37;;;;;;;13.85;11.75;;;19.60;99.90;;;;;;5050328;28;19917;-51
2023/06/24 06:25:04;;;;;;;19.77;13.05;;;19.70;99.90;;;;;;5052641;28;20116;-47
2023/06/24 06:27:29;;;;;;;12.90;11.57;;;19.70;99.90;;;;;;5060326;28;20036;-48
2023/06/24 06:29:55;;;;;;;14.20;12.77;;;19.80;99.90;;;;;;5049236;28;20529;-46
2023/06/24 06:32:20;;;;;;;;;;;19.90;99.90;;;;;;5051364;28;20037;-46
2023/06/24 06:34:46;;;;;;;17.05;12.38;;;20.00;99.90;;;;;;5049056;28;19920;-48
2023/06/24 06:37:11;;;;;;;;;;;20.00;99.90;;;;;;5050810;28;20438;-46
2023/06/24 06:39:37;;;;;;;15.23;11.27;;;20.20;99.90;;;;;;5050040;28;19917;-46
2023/06/24 06:42:03;;;;;;;14.57;12.15;;;20.30;99.90;;;;;;5056770;28;20116;-48
2023/06/24 06:44:28;;;;;;;;;;;20.30;99.90;;;;;;5054252;28;20040;-49
2023/06/24 06:46:54;;;;;;;12.60;10.90;;;20.40;99.90;;;;;;5065977;28;19920;-46
2023/06/24 06:49:19;;;;;;;;;;;20.50;99.90;;;;;;5069766;28;20036;-46
2023/06/24 06:51:45;;;;;;;17.30;10.82;;;20.60;99.90;;;;;;5054371;28;20386;-46
2023/06/24 06:54:10;;;;;;;;;;;20.80;99.90;;;;;;5053221;28;20037;-49
2023/06/24 06:56:36;;;;;;;15.18;11.00;;;20.90;99.90;;;;;;5067769;28;20341;-48
2023/06/24 06:59:01;;;;;;;;;;;21.10;99.90;;;;;;5070510;28;20038;-49
2023/06/24 07:01:27;;;;;;;13.90;12.45;;;21.20;99.90;;;;;;5056520;28;19920;-46
2023/06/24 07:03:52;;;;;;;;;;;21.30;99.90;;;;;;5052991;28;20453;-47
2023/06/24 07:06:19;;;;;;;15.88;11.43;;;21.30;99.90;;;;;;5056664;28;19924;-46
2023/06/24 07:08:45;;;;;;;12.35;11.02;;;21.40;99.90;;;;;;5053538;28;20036;-46
2023/06/24 07:11:11;;;;;;;14.95;11.38;;;21.50;99.90;;;;;;5057117;28;20115;-48
2023/06/24 07:13:36;;;;;;;;;;;21.60;99.90;;;;;;5053008;28;20115;-46
2023/06/24 07:16:02;;;;;;;16.00;11.07;;;21.60;99.90;;;;;;5054128;28;19929;-50
2023/06/24 07:18:30;;;;;;;;;;;21.70;99.90;;;;;;5068166;28;20040;-46
2023/06/24 07:20:56;;;;;;;11.73;10.25;;;21.80;99.90;;;;;;5068286;28;19916;-49
2023/06/24 07:23:22;;;;;;;12.13;10.32;;;21.90;99.90;;;;;;5052179;28;20029;-46
2023/06/24 07:25:47;;;;;;;;;;;22.00;99.90;;;;;;5061410;28;20127;-49
2023/06/24 07:28:13;;;;;;;12.90;10.13;;;22.10;99.90;;;;;;5069824;28;20270;-48
2023/06/24 07:30:39;;;;;;;13.55;10.73;;;22.20;99.90;;;;;;5065862;28;20110;-46
2023/06/24 07:33:05;;;;;;;17.35;10.90;;;22.30;99.90;;;;;;5070349;28;20108;-47
2023/06/24 07:35:32;;;;;;;;;;;22.40;99.90;;;;;;5069757;28;20135;-46
2023/06/24 07:37:58;;;;;;;12.07;10.88;;;22.50;99.90;;;;;;5056400;28;19923;-47
2023/06/24 07:40:23;;;;;;;;;;;22.50;99.90;;;;;;5066447;28;20044;-50
2023/06/24 07:42:49;;;;;;;14.55;11.15;;;22.60;99.90;;;;;;5068960;28;19916;-46
2023/06/24 07:45:14;;;;;;;;;;;22.70;99.90;;;;;;5055886;28;20502;-47
2023/06/24 07:47:40;;;;;;;14.32;9.93;;;22.80;99.90;;;;;;5051834;28;19968;-46
2023/06/24 07:50:06;;;;;;;12.60;10.70;;;22.90;99.90;;;;;;5068332;28;20132;-47
2023/06/24 07:52:31;;;;;;;;;;;23.00;99.90;;;;;;5069471;28;20036;-46
2023/06/24 07:54:58;;;;;;;13.45;10.32;;;23.10;99.90;;;;;;5052980;28;19921;-47
2023/06/24 07:57:24;;;;;;;11.70;9.95;;;23.20;99.90;;;;;;5051881;28;20348;-48
2023/06/24 07:59:49;;;;;;;;;;;23.20;99.90;;;;;;5062316;28;20048;-48
2023/06/24 08:02:15;;;;;;;14.27;10.23;;;23.30;99.90;;;;;;5061188;28;19935;-47
2023/06/24 08:04:41;;;;;;;13.05;10.52;;;23.50;99.90;;;;;;5064400;28;20048;-52
2023/06/24 08:07:06;;;;;;;12.48;9.73;;;23.60;99.90;;;;;;5065776;28;20075;-49
2023/06/24 08:09:32;;;;;;;13.45;10.73;;;23.80;99.90;;;;;;5063365;28;20124;-46
2023/06/24 08:11:57;;;;;;;11.13;10.00;;;23.80;99.90;;;;;;5058035;28;20410;-47
2023/06/24 08:14:23;;;;;;;18.73;11.10;;;23.90;99.90;;;;;;5068010;28;20465;-50
2023/06/24 08:16:49;;;;;;;11.15;9.95;;;24.00;99.90;;;;;;5058718;28;20041;-46
2023/06/24 08:19:14;;;;;;;16.45;10.07;;;24.10;99.80;;;;;;5054295;28;20052;-47
2023/06/24 08:21:40;;;;;;;12.13;10.27;;;24.10;99.80;;;;;;5059202;28;20037;-47
2023/06/24 08:24:06;;;;;;;12.55;10.38;;;24.20;99.80;;;;;;5053745;28;20124;-47
2023/06/24 08:26:32;;;;;;;15.98;9.43;;;24.30;99.70;;;;;;5054278;28;20040;-47
2023/06/24 08:28:59;;;;;;;11.45;10.32;;;24.40;99.90;;;;;;5063276;28;20737;-51
2023/06/24 08:31:25;;;;;;;13.35;10.10;;;24.40;99.10;;;;;;5058757;28;20052;-49
2023/06/24 08:33:54;;;;;;;14.75;10.45;;;24.30;99.00;;;;;;5060903;28;20093;-50
2023/06/24 08:36:23;;;;;;;15.52;11.90;;;24.40;99.00;;;;;;5065719;28;20041;-47
2023/06/24 08:38:49;;;;;;;12.93;11.55;;;24.40;99.00;;;;;;5060963;28;20421;-48
2023/06/24 08:41:14;;;;;;;15.57;11.63;;;24.40;98.60;;;;;;5058934;28;20043;-49
2023/06/24 08:43:40;;;;;;;11.95;10.55;;;24.40;98.30;;;;;;5055864;28;20036;-47
2023/06/24 08:46:06;;;;;;;12.75;10.70;;;24.50;98.50;;;;;;5054509;28;20127;-50
2023/06/24 08:48:39;;;;;;;14.27;11.00;;;24.50;98.60;;;;;;5059490;28;20028;-49
2023/06/24 08:51:07;;;;;;;12.48;11.18;;;24.60;98.40;;;;;;5059996;28;20497;-50
2023/06/24 08:53:33;;;;;;;14.10;11.30;;;24.70;98.70;;;;;;5068640;28;20036;-48
2023/06/24 08:55:59;;;;;;;16.00;12.00;;;24.80;97.90;;;;;;5064752;28;20041;-47
2023/06/24 08:58:26;;;;;;;14.90;11.95;;;24.90;98.10;;;;;;5063019;28;20036;-48
2023/06/24 09:00:52;;;;;;;11.07;9.98;;;25.00;98.30;;;;;;5064416;28;20029;-48
2023/06/24 09:03:17;;;;;;;14.95;10.82;;;25.10;98.00;;;;;;5061128;28;20041;-50
2023/06/24 09:05:44;;;;;;;15.30;12.23;;;25.20;97.90;;;;;;5062378;28;20033;-46
2023/06/24 09:08:10;;;;;;;14.70;11.90;;;25.30;98.30;;;;;;5063796;28;20041;-49
2023/06/24 09:10:37;;;;;;;14.70;13.27;;;25.30;98.00;;;;;;5067654;28;20562;-47
2023/06/24 09:13:04;;;;;;;14.80;11.45;;;25.30;97.80;;;;;;5060861;28;20052;-47
2023/06/24 09:15:37;;;;;;;15.35;12.40;;;25.40;97.90;;;;;;5060940;28;20529;-47
2023/06/24 09:18:04;;;;;;;15.82;11.52;;;25.40;97.20;;;;;;5057228;28;20036;-48
2023/06/24 09:20:32;;;;;;;13.32;12.00;;;25.50;97.00;;;;;;5062769;28;20041;-50
2023/06/24 09:22:59;;;;;;;15.98;10.95;;;25.50;96.60;;;;;;5059495;28;20044;-47
2023/06/24 09:25:25;;;;;;;13.30;12.02;;;25.50;96.80;;;;;;5057624;28;20075;-53
2023/06/24 09:27:55;;;;;;;17.52;12.38;;;25.50;96.40;;;;;;5060054;28;20544;-51
2023/06/24 09:30:22;;;;;;;12.45;11.15;;;25.50;96.10;;;;;;5058014;28;20045;-47
2023/06/24 09:32:49;;;;;;;12.23;10.65;;;25.60;96.30;;;;;;5056577;28;20041;-47
2023/06/24 09:35:18;;;;;;;16.73;9.52;;;25.70;96.30;;;;;;5056913;28;20259;-46
2023/06/24 09:37:52;;;;;;;13.40;12.07;;;25.90;96.40;;;;;;5060027;28;20041;-47
2023/06/24 09:40:19;;;;;;;14.32;10.77;;;25.90;95.50;;;;;;5054438;28;20449;-47
2023/06/24 09:42:56;;;;;;;11.05;8.77;;;26.00;96.00;;;;;;5060816;28;20489;-46
2023/06/24 09:45:29;;;;;;;11.25;7.63;;;26.00;95.40;;;;;;5064646;28;20709;-49
2023/06/24 09:47:55;;;;;;;7.55;6.60;;;26.10;94.50;;;;;;5057257;28;20040;-47
2023/06/24 09:50:21;;;;;;;5.85;5.35;;;26.10;95.20;;;;;;5064388;28;20037;-48
2023/06/24 09:52:48;;;;;;;9.63;6.80;;;26.20;95.10;;;;;;5056898;28;20497;-48
2023/06/24 09:55:15;;;;;;;9.15;7.00;;;26.30;94.70;;;;;;5060514;28;20044;-50
2023/06/24 09:57:45;;;;;;;9.20;7.07;;;26.30;94.90;;;;;;5060262;28;20501;-48
2023/06/24 10:00:15;;;;;;;13.93;6.85;;;26.40;93.70;;;;;;5049885;28;20079;-47
2023/06/24 10:02:40;;;;;;;10.20;4.38;;;26.40;93.90;;;;;;5051970;28;20084;-50
2023/06/24 10:05:07;;;;;;;8.90;6.95;;;26.40;93.40;;;;;;5064232;28;20091;-51
2023/06/24 10:07:34;;;;;;;7.68;6.45;;;26.50;94.10;;;;;;5054416;28;20041;-50
2023/06/24 10:10:03;;;;;;;8.88;3.83;;;26.40;93.60;;;;;;5049381;28;20033;-48
2023/06/24 10:12:28;;;;;;;14.23;3.08;;;26.50;92.90;;;;;;5059801;28;20067;-50
2023/06/24 10:14:54;;;;;;;4.15;3.28;;;26.60;92.80;;;;;;5063171;28;20080;-46
2023/06/24 10:17:20;;;;;;;4.07;2.92;;;26.70;91.50;;;;;;5063303;28;20029;-47
2023/06/24 10:19:45;;;;;;;4.80;3.15;;;26.80;91.40;;;;;;5056468;28;20518;-47
2023/06/24 10:22:11;;;;;;;5.93;3.60;;;26.80;91.40;;;;;;5049149;28;20059;-51
2023/06/24 10:24:42;;;;;;;6.25;4.53;;;27.00;90.90;;;;;;5050912;28;20044;-49
2023/06/24 10:27:13;;;;;;;4.82;3.55;;;27.00;91.20;;;;;;5053352;28;20051;-50
2023/06/24 10:29:38;;;;;;;5.60;5.03;;;27.10;91.40;;;;;;5049963;28;20037;-47
2023/06/24 10:32:08;;;;;;;6.28;5.45;;;27.00;90.90;;;;;;5059166;28;20047;-47
2023/06/24 10:34:38;;;;;;;5.93;5.32;;;27.00;90.60;;;;;;5053288;28;20032;-51
2023/06/24 10:37:25;;;;;;;8.27;5.32;;;27.00;91.30;;;;;;5061023;28;20037;-47
2023/06/24 10:39:59;;;;;;;16.35;6.18;;;27.10;90.90;;;;;;5053023;28;20037;-47
2023/06/24 10:42:31;;;;;;;5.93;4.72;;;27.10;90.60;;;;;;5060312;28;20059;-47
2023/06/24 10:45:10;;;;;;;5.55;4.45;;;27.10;90.60;;;;;;5050784;28;20128;-47
2023/06/24 10:47:37;;;;;;;5.13;3.95;;;27.10;90.60;;;;;;5061341;28;20489;-50
2023/06/24 10:50:03;;;;;;;6.50;2.70;;;27.30;90.70;;;;;;5048642;28;20065;-50
2023/06/24 10:52:29;;;;;;;4.10;2.10;;;27.30;89.20;;;;;;5050752;28;20052;-48
2023/06/24 10:54:57;;;;;;;2.47;2.22;;;27.40;87.70;;;;;;5049456;28;20079;-48
2023/06/24 10:57:27;;;;;;;7.50;2.85;;;27.30;87.80;;;;;;5052268;28;20041;-52
2023/06/24 10:59:54;;;;;;;4.07;1.88;;;27.40;86.90;;;;;;5048774;28;20489;-47
2023/06/24 11:02:25;;;;;;;3.03;2.03;;;27.40;86.10;;;;;;5058244;28;20048;-52
2023/06/24 11:04:55;;;;;;;9.10;1.83;;;27.40;83.50;;;;;;5048953;28;20037;-47
2023/06/24 11:07:23;;;;;;;4.40;1.60;;;27.40;83.80;;;;;;5057737;28;20102;-47
2023/06/24 11:09:50;;;;;;;5.00;2.40;;;27.40;84.60;;;;;;5061409;28;20123;-49
2023/06/24 11:12:16;;;;;;;5.93;2.28;;;27.50;85.00;;;;;;5057685;28;20567;-47
2023/06/24 11:14:42;;;;;;;4.63;1.85;;;27.50;83.10;;;;;;5058484;28;20049;-48
2023/06/24 11:17:07;;;;;;;2.95;2.25;;;27.50;82.00;;;;;;5052693;28;20047;-49
2023/06/24 11:19:34;;;;;;;8.30;2.42;;;27.50;82.20;;;;;;5050255;28;20033;-48
2023/06/24 11:22:02;;;;;;;8.65;2.72;;;27.50;82.50;;;;;;5057112;28;20033;-47
2023/06/24 11:24:28;;;;;;;3.80;3.40;;;27.60;81.20;;;;;;5059544;28;20044;-49
2023/06/24 11:26:55;;;;;;;3.97;2.58;;;27.70;83.00;;;;;;5059112;28;20040;-47
2023/06/24 11:29:21;;;;;;;4.57;2.97;;;27.70;83.80;;;;;;5056880;28;20519;-51
2023/06/24 11:31:46;;;;;;;5.45;3.47;;;27.80;83.40;;;;;;5054369;28;20120;-49
2023/06/24 11:34:12;;;;;;;3.72;2.45;;;27.70;82.70;;;;;;5060010;28;20159;-47
2023/06/24 11:36:38;;;;;;;2.95;2.00;;;27.70;82.10;;;;;;5065493;28;20117;-47
2023/06/24 11:39:03;;;;;;;3.30;2.08;;;27.80;82.50;;;;;;5061512;28;20112;-47
2023/06/24 11:41:29;;;;;;;4.32;2.20;;;28.00;83.00;;;;;;5056252;28;20068;-50
2023/06/24 11:43:58;;;;;;;3.33;1.85;;;28.20;83.30;;;;;;5058779;28;20055;-52
2023/06/24 11:46:35;;;;;;;2.33;2.13;;;28.30;81.00;;;;;;5058417;28;20518;-50
2023/06/24 11:49:05;;;;;;;1.63;1.42;;;28.50;80.20;;;;;;5059589;28;20041;-48
2023/06/24 11:51:30;;;;;;;3.15;2.40;;;28.60;80.50;;;;;;5056405;28;20446;-47
2023/06/24 11:54:00;;;;;;;5.80;2.13;;;28.70;80.40;;;;;;5059594;28;20125;-47
2023/06/24 11:56:35;;;;;;;7.60;3.08;;;28.70;79.70;;;;;;5053055;28;20434;-50
2023/06/24 11:59:03;;;;;;;2.55;2.20;;;28.60;78.90;;;;;;5051329;28;20044;-47
2023/06/24 12:01:37;;;;;;;4.55;3.08;;;28.50;80.60;;;;;;5060652;28;20047;-48
2023/06/24 12:04:15;;;;;;;2.90;2.28;;;28.40;79.20;;;;;;5058007;28;20115;-47
2023/06/24 12:06:42;;;;;;;1.92;1.73;;;28.30;78.90;;;;;;5056775;28;20094;-47
2023/06/24 12:09:09;;;;;;;3.92;2.10;;;28.20;78.20;;;;;;5060369;28;20052;-52
2023/06/24 12:11:35;;;;;;;2.45;1.30;;;28.20;78.20;;;;;;5067763;28;20394;-47
2023/06/24 12:14:01;;;;;;;4.07;2.03;;;28.20;79.00;;;;;;5058933;28;20110;-50
2023/06/24 12:16:26;;;;;;;2.80;1.77;;;28.40;78.70;;;;;;5052723;28;20045;-52
2023/06/24 12:18:53;;;;;;;4.15;2.13;;;28.50;79.70;;;;;;5051031;28;20045;-48
2023/06/24 12:21:18;;;;;;;4.22;2.67;;;28.60;78.10;;;;;;5059174;28;20066;-49
2023/06/24 12:23:44;;;;;;;2.72;2.35;;;28.80;78.40;;;;;;5060200;28;20072;-52
2023/06/24 12:26:10;;;;;;;2.70;2.13;;;28.80;77.80;;;;;;5058841;28;20040;-48
2023/06/24 12:28:36;;;;;;;3.50;1.92;;;28.80;78.90;;;;;;5054089;28;20048;-47
2023/06/24 12:31:02;;;;;;;2.38;2.17;;;28.90;77.00;;;;;;5063677;28;20049;-47
2023/06/24 12:33:28;;;;;;;4.15;2.13;;;28.90;76.20;;;;;;5066282;28;20045;-47
2023/06/24 12:35:53;;;;;;;1.80;1.60;;;28.90;76.90;;;;;;5060110;28;20060;-47
2023/06/24 12:38:19;;;;;;;3.58;2.83;;;28.80;77.90;;;;;;5061588;28;20032;-50
2023/06/24 12:40:45;;;;;;;2.95;2.65;;;28.80;76.60;;;;;;5062908;28;20068;-47
2023/06/24 12:43:11;;;;;;;1.98;1.70;;;28.70;77.30;;;;;;5061671;28;20043;-47